sensor_id;sensor_type;location;lat;lon;timestamp;P1;durP1;ratioP1;P2;durP2;ratioP2
25657;SDS011;13517;59.320;18.042;2023-02-15T00:01:22;12.75;;;6.60;;
25657;SDS011;13517;59.320;18.042;2023-02-15T00:03:48;14.98;;;6.72;;
25657;SDS011;13517;59.320;18.042;2023-02-15T00:06:14;14.85;;;7.13;;
25657;SDS011;13517;59.320;18.042;2023-02-15T00:08:39;18.88;;;6.45;;
25657;SDS011;13517;59.320;18.042;2023-02-15T00:11:09;10.68;;;6.28;;
25657;SDS011;13517;59.320;18.042;2023-02-15T00:13:36;14.82;;;7.15;;
25657;SDS011;13517;59.320;18.042;2023-02-15T00:16:04;12.88;;;6.60;;
25657;SDS011;13517;59.320;18.042;2023-02-15T00:18:31;15.43;;;6.53;;
25657;SDS011;13517;59.320;18.042;2023-02-15T00:20:57;11.07;;;5.93;;
25657;SDS011;13517;59.320;18.042;2023-02-15T00:23:23;14.98;;;6.20;;
25657;SDS011;13517;59.320;18.042;2023-02-15T00:25:49;17.75;;;7.10;;
25657;SDS011;13517;59.320;18.042;2023-02-15T00:28:15;21.25;;;6.30;;
25657;SDS011;13517;59.320;18.042;2023-02-15T00:30:40;15.23;;;6.60;;
25657;SDS011;13517;59.320;18.042;2023-02-15T00:33:06;20.10;;;6.93;;
25657;SDS011;13517;59.320;18.042;2023-02-15T00:35:31;13.38;;;6.30;;
25657;SDS011;13517;59.320;18.042;2023-02-15T00:37:57;12.68;;;5.63;;
25657;SDS011;13517;59.320;18.042;2023-02-15T00:40:22;15.13;;;5.88;;
25657;SDS011;13517;59.320;18.042;2023-02-15T00:42:47;16.08;;;6.35;;
25657;SDS011;13517;59.320;18.042;2023-02-15T00:45:13;17.25;;;6.20;;
25657;SDS011;13517;59.320;18.042;2023-02-15T00:47:38;14.52;;;6.03;;
25657;SDS011;13517;59.320;18.042;2023-02-15T00:50:04;16.88;;;5.90;;
25657;SDS011;13517;59.320;18.042;2023-02-15T00:52:30;14.38;;;6.75;;
25657;SDS011;13517;59.320;18.042;2023-02-15T00:54:56;12.05;;;5.60;;
25657;SDS011;13517;59.320;18.042;2023-02-15T00:57:21;15.68;;;6.20;;
25657;SDS011;13517;59.320;18.042;2023-02-15T00:59:46;12.15;;;6.35;;
25657;SDS011;13517;59.320;18.042;2023-02-15T01:02:12;13.00;;;6.00;;
25657;SDS011;13517;59.320;18.042;2023-02-15T01:04:37;12.52;;;5.80;;
25657;SDS011;13517;59.320;18.042;2023-02-15T01:07:03;17.50;;;6.75;;
25657;SDS011;13517;59.320;18.042;2023-02-15T01:09:28;13.88;;;6.53;;
25657;SDS011;13517;59.320;18.042;2023-02-15T01:11:54;13.65;;;5.63;;
25657;SDS011;13517;59.320;18.042;2023-02-15T01:14:20;18.85;;;6.53;;
25657;SDS011;13517;59.320;18.042;2023-02-15T01:16:45;9.77;;;5.45;;
25657;SDS011;13517;59.320;18.042;2023-02-15T01:19:10;14.23;;;5.43;;
25657;SDS011;13517;59.320;18.042;2023-02-15T01:21:36;13.70;;;6.15;;
25657;SDS011;13517;59.320;18.042;2023-02-15T01:24:02;17.02;;;6.00;;
25657;SDS011;13517;59.320;18.042;2023-02-15T01:26:28;13.70;;;6.53;;
25657;SDS011;13517;59.320;18.042;2023-02-15T01:28:53;13.25;;;5.22;;
25657;SDS011;13517;59.320;18.042;2023-02-15T01:31:19;10.60;;;5.20;;
25657;SDS011;13517;59.320;18.042;2023-02-15T01:33:46;14.20;;;6.45;;
25657;SDS011;13517;59.320;18.042;2023-02-15T01:36:12;11.82;;;5.38;;
25657;SDS011;13517;59.320;18.042;2023-02-15T01:38:39;11.20;;;6.28;;
25657;SDS011;13517;59.320;18.042;2023-02-15T01:41:04;11.57;;;5.47;;
25657;SDS011;13517;59.320;18.042;2023-02-15T01:43:58;14.40;;;6.20;;
25657;SDS011;13517;59.320;18.042;2023-02-15T01:46:33;14.73;;;5.78;;
25657;SDS011;13517;59.320;18.042;2023-02-15T01:49:08;13.93;;;6.18;;
25657;SDS011;13517;59.320;18.042;2023-02-15T01:51:40;12.32;;;6.13;;
25657;SDS011;13517;59.320;18.042;2023-02-15T01:56:34;13.15;;;6.30;;
25657;SDS011;13517;59.320;18.042;2023-02-15T01:59:04;14.02;;;6.20;;
25657;SDS011;13517;59.320;18.042;2023-02-15T02:01:34;15.00;;;5.53;;
25657;SDS011;13517;59.320;18.042;2023-02-15T02:06:44;19.15;;;6.32;;
25657;SDS011;13517;59.320;18.042;2023-02-15T02:09:13;12.25;;;6.18;;
25657;SDS011;13517;59.320;18.042;2023-02-15T02:11:38;16.98;;;6.88;;
25657;SDS011;13517;59.320;18.042;2023-02-15T02:14:05;20.90;;;7.15;;
25657;SDS011;13517;59.320;18.042;2023-02-15T02:20:04;11.18;;;5.88;;
25657;SDS011;13517;59.320;18.042;2023-02-15T02:27:32;16.67;;;6.10;;
25657;SDS011;13517;59.320;18.042;2023-02-15T02:41:24;18.27;;;7.47;;
25657;SDS011;13517;59.320;18.042;2023-02-15T02:44:19;13.70;;;6.65;;
25657;SDS011;13517;59.320;18.042;2023-02-15T02:46:54;14.30;;;6.82;;
25657;SDS011;13517;59.320;18.042;2023-02-15T02:49:31;16.52;;;6.90;;
25657;SDS011;13517;59.320;18.042;2023-02-15T02:51:59;14.15;;;6.28;;
25657;SDS011;13517;59.320;18.042;2023-02-15T02:54:30;17.13;;;7.38;;
25657;SDS011;13517;59.320;18.042;2023-02-15T02:57:00;12.77;;;6.85;;
25657;SDS011;13517;59.320;18.042;2023-02-15T02:59:39;20.33;;;7.13;;
25657;SDS011;13517;59.320;18.042;2023-02-15T03:02:15;18.90;;;6.72;;
25657;SDS011;13517;59.320;18.042;2023-02-15T03:04:47;17.70;;;6.50;;
25657;SDS011;13517;59.320;18.042;2023-02-15T03:07:23;18.83;;;7.35;;
25657;SDS011;13517;59.320;18.042;2023-02-15T03:09:51;12.00;;;6.90;;
25657;SDS011;13517;59.320;18.042;2023-02-15T03:12:20;17.98;;;7.00;;
25657;SDS011;13517;59.320;18.042;2023-02-15T03:15:00;14.25;;;6.95;;
25657;SDS011;13517;59.320;18.042;2023-02-15T03:17:30;12.82;;;6.72;;
25657;SDS011;13517;59.320;18.042;2023-02-15T03:19:58;14.75;;;7.60;;
25657;SDS011;13517;59.320;18.042;2023-02-15T03:22:40;24.38;;;10.00;;
25657;SDS011;13517;59.320;18.042;2023-02-15T03:25:13;15.52;;;7.32;;
25657;SDS011;13517;59.320;18.042;2023-02-15T03:27:44;17.33;;;8.27;;
25657;SDS011;13517;59.320;18.042;2023-02-15T03:30:13;17.35;;;8.10;;
25657;SDS011;13517;59.320;18.042;2023-02-15T03:32:44;19.05;;;7.78;;
25657;SDS011;13517;59.320;18.042;2023-02-15T03:35:11;22.73;;;8.93;;
25657;SDS011;13517;59.320;18.042;2023-02-15T03:37:40;23.30;;;7.93;;
25657;SDS011;13517;59.320;18.042;2023-02-15T03:45:34;17.80;;;8.63;;
25657;SDS011;13517;59.320;18.042;2023-02-15T03:48:03;15.90;;;9.23;;
25657;SDS011;13517;59.320;18.042;2023-02-15T03:50:31;18.95;;;8.50;;
25657;SDS011;13517;59.320;18.042;2023-02-15T03:53:20;19.15;;;7.70;;
25657;SDS011;13517;59.320;18.042;2023-02-15T03:55:49;19.33;;;8.35;;
25657;SDS011;13517;59.320;18.042;2023-02-15T03:58:19;17.95;;;8.73;;
25657;SDS011;13517;59.320;18.042;2023-02-15T04:01:19;20.65;;;9.40;;
25657;SDS011;13517;59.320;18.042;2023-02-15T04:04:12;17.45;;;9.38;;
25657;SDS011;13517;59.320;18.042;2023-02-15T04:06:44;18.10;;;8.50;;
25657;SDS011;13517;59.320;18.042;2023-02-15T04:09:09;18.27;;;8.52;;
25657;SDS011;13517;59.320;18.042;2023-02-15T04:11:53;24.80;;;11.07;;
25657;SDS011;13517;59.320;18.042;2023-02-15T04:14:18;18.80;;;9.82;;
25657;SDS011;13517;59.320;18.042;2023-02-15T04:17:06;20.60;;;9.93;;
25657;SDS011;13517;59.320;18.042;2023-02-15T04:19:32;17.77;;;9.52;;
25657;SDS011;13517;59.320;18.042;2023-02-15T04:22:16;20.83;;;9.75;;
25657;SDS011;13517;59.320;18.042;2023-02-15T04:25:00;20.15;;;9.85;;
25657;SDS011;13517;59.320;18.042;2023-02-15T04:27:38;20.30;;;10.00;;
25657;SDS011;13517;59.320;18.042;2023-02-15T04:30:06;18.10;;;9.30;;
25657;SDS011;13517;59.320;18.042;2023-02-15T04:32:31;19.15;;;10.57;;
25657;SDS011;13517;59.320;18.042;2023-02-15T04:34:57;25.00;;;10.43;;
25657;SDS011;13517;59.320;18.042;2023-02-15T04:37:23;21.60;;;10.98;;
25657;SDS011;13517;59.320;18.042;2023-02-15T04:39:48;24.85;;;11.32;;
25657;SDS011;13517;59.320;18.042;2023-02-15T04:42:15;23.60;;;10.82;;
25657;SDS011;13517;59.320;18.042;2023-02-15T04:44:40;19.75;;;9.82;;
25657;SDS011;13517;59.320;18.042;2023-02-15T04:47:06;19.13;;;10.23;;
25657;SDS011;13517;59.320;18.042;2023-02-15T04:49:31;27.63;;;11.35;;
25657;SDS011;13517;59.320;18.042;2023-02-15T04:51:57;24.52;;;10.68;;
25657;SDS011;13517;59.320;18.042;2023-02-15T04:54:22;21.88;;;10.23;;
25657;SDS011;13517;59.320;18.042;2023-02-15T04:56:47;23.67;;;11.05;;
25657;SDS011;13517;59.320;18.042;2023-02-15T04:59:13;21.27;;;10.95;;
25657;SDS011;13517;59.320;18.042;2023-02-15T05:01:38;29.05;;;11.52;;
25657;SDS011;13517;59.320;18.042;2023-02-15T05:04:04;23.60;;;10.50;;
25657;SDS011;13517;59.320;18.042;2023-02-15T05:06:29;20.58;;;10.90;;
25657;SDS011;13517;59.320;18.042;2023-02-15T05:08:55;28.45;;;11.15;;
25657;SDS011;13517;59.320;18.042;2023-02-15T05:11:21;24.58;;;10.85;;
25657;SDS011;13517;59.320;18.042;2023-02-15T05:13:46;25.45;;;12.18;;
25657;SDS011;13517;59.320;18.042;2023-02-15T05:16:11;23.48;;;10.98;;
25657;SDS011;13517;59.320;18.042;2023-02-15T05:18:37;22.17;;;11.65;;
25657;SDS011;13517;59.320;18.042;2023-02-15T05:21:03;22.90;;;10.38;;
25657;SDS011;13517;59.320;18.042;2023-02-15T05:23:29;23.30;;;11.35;;
25657;SDS011;13517;59.320;18.042;2023-02-15T05:25:54;27.50;;;11.57;;
25657;SDS011;13517;59.320;18.042;2023-02-15T05:28:38;19.92;;;10.95;;
25657;SDS011;13517;59.320;18.042;2023-02-15T05:31:10;27.00;;;12.45;;
25657;SDS011;13517;59.320;18.042;2023-02-15T05:33:38;27.00;;;12.50;;
25657;SDS011;13517;59.320;18.042;2023-02-15T05:36:04;27.50;;;11.57;;
25657;SDS011;13517;59.320;18.042;2023-02-15T05:38:31;29.35;;;11.38;;
25657;SDS011;13517;59.320;18.042;2023-02-15T05:40:57;26.65;;;12.23;;
25657;SDS011;13517;59.320;18.042;2023-02-15T05:43:23;26.70;;;12.68;;
25657;SDS011;13517;59.320;18.042;2023-02-15T05:45:50;25.40;;;12.63;;
25657;SDS011;13517;59.320;18.042;2023-02-15T05:48:18;29.92;;;11.90;;
25657;SDS011;13517;59.320;18.042;2023-02-15T05:50:45;27.15;;;11.95;;
25657;SDS011;13517;59.320;18.042;2023-02-15T05:53:11;25.80;;;11.60;;
25657;SDS011;13517;59.320;18.042;2023-02-15T05:55:37;29.95;;;12.38;;
25657;SDS011;13517;59.320;18.042;2023-02-15T05:58:04;26.98;;;12.68;;
25657;SDS011;13517;59.320;18.042;2023-02-15T06:00:29;27.80;;;11.55;;
25657;SDS011;13517;59.320;18.042;2023-02-15T06:02:55;27.05;;;12.52;;
25657;SDS011;13517;59.320;18.042;2023-02-15T06:05:20;27.90;;;12.88;;
25657;SDS011;13517;59.320;18.042;2023-02-15T06:07:46;29.10;;;14.02;;
25657;SDS011;13517;59.320;18.042;2023-02-15T06:10:11;28.95;;;12.60;;
25657;SDS011;13517;59.320;18.042;2023-02-15T06:12:37;24.25;;;12.40;;
25657;SDS011;13517;59.320;18.042;2023-02-15T06:15:02;28.60;;;13.85;;
25657;SDS011;13517;59.320;18.042;2023-02-15T06:17:28;29.17;;;12.63;;
25657;SDS011;13517;59.320;18.042;2023-02-15T06:19:53;30.67;;;13.43;;
25657;SDS011;13517;59.320;18.042;2023-02-15T06:22:19;26.40;;;13.25;;
25657;SDS011;13517;59.320;18.042;2023-02-15T06:24:45;29.77;;;14.38;;
25657;SDS011;13517;59.320;18.042;2023-02-15T06:27:11;27.90;;;13.52;;
25657;SDS011;13517;59.320;18.042;2023-02-15T06:29:36;26.88;;;13.20;;
25657;SDS011;13517;59.320;18.042;2023-02-15T06:32:02;30.60;;;12.63;;
25657;SDS011;13517;59.320;18.042;2023-02-15T06:34:27;27.92;;;13.48;;
25657;SDS011;13517;59.320;18.042;2023-02-15T06:36:53;27.45;;;12.00;;
25657;SDS011;13517;59.320;18.042;2023-02-15T06:39:18;29.73;;;13.07;;
25657;SDS011;13517;59.320;18.042;2023-02-15T06:41:43;32.47;;;12.73;;
25657;SDS011;13517;59.320;18.042;2023-02-15T06:44:09;28.63;;;13.60;;
25657;SDS011;13517;59.320;18.042;2023-02-15T06:46:34;30.45;;;12.95;;
25657;SDS011;13517;59.320;18.042;2023-02-15T06:48:59;27.52;;;11.93;;
25657;SDS011;13517;59.320;18.042;2023-02-15T06:51:25;27.98;;;12.70;;
25657;SDS011;13517;59.320;18.042;2023-02-15T06:53:51;27.90;;;12.60;;
25657;SDS011;13517;59.320;18.042;2023-02-15T06:56:16;28.80;;;12.88;;
25657;SDS011;13517;59.320;18.042;2023-02-15T06:58:42;25.55;;;11.38;;
25657;SDS011;13517;59.320;18.042;2023-02-15T07:01:08;24.60;;;11.68;;
25657;SDS011;13517;59.320;18.042;2023-02-15T07:03:34;28.90;;;12.20;;
25657;SDS011;13517;59.320;18.042;2023-02-15T07:06:01;27.80;;;12.45;;
25657;SDS011;13517;59.320;18.042;2023-02-15T07:08:28;29.10;;;13.63;;
25657;SDS011;13517;59.320;18.042;2023-02-15T07:10:54;25.23;;;12.10;;
25657;SDS011;13517;59.320;18.042;2023-02-15T07:13:40;29.58;;;12.23;;
25657;SDS011;13517;59.320;18.042;2023-02-15T07:16:07;22.05;;;10.93;;
25657;SDS011;13517;59.320;18.042;2023-02-15T07:18:33;24.02;;;11.40;;
25657;SDS011;13517;59.320;18.042;2023-02-15T07:20:59;26.13;;;11.75;;
25657;SDS011;13517;59.320;18.042;2023-02-15T07:23:24;22.50;;;11.38;;
25657;SDS011;13517;59.320;18.042;2023-02-15T07:25:56;22.10;;;11.30;;
25657;SDS011;13517;59.320;18.042;2023-02-15T07:28:22;22.83;;;11.90;;
25657;SDS011;13517;59.320;18.042;2023-02-15T07:30:47;22.38;;;11.55;;
25657;SDS011;13517;59.320;18.042;2023-02-15T07:33:13;22.25;;;11.43;;
25657;SDS011;13517;59.320;18.042;2023-02-15T07:35:59;21.77;;;10.18;;
25657;SDS011;13517;59.320;18.042;2023-02-15T07:38:27;21.92;;;10.88;;
25657;SDS011;13517;59.320;18.042;2023-02-15T07:40:59;24.05;;;10.43;;
25657;SDS011;13517;59.320;18.042;2023-02-15T07:43:26;21.48;;;10.75;;
25657;SDS011;13517;59.320;18.042;2023-02-15T07:45:52;19.60;;;9.82;;
25657;SDS011;13517;59.320;18.042;2023-02-15T07:48:17;21.20;;;11.07;;
25657;SDS011;13517;59.320;18.042;2023-02-15T07:50:42;23.33;;;11.43;;
25657;SDS011;13517;59.320;18.042;2023-02-15T07:53:08;22.13;;;11.50;;
25657;SDS011;13517;59.320;18.042;2023-02-15T07:55:34;21.75;;;10.23;;
25657;SDS011;13517;59.320;18.042;2023-02-15T07:58:00;21.58;;;11.32;;
25657;SDS011;13517;59.320;18.042;2023-02-15T08:00:25;25.27;;;11.32;;
25657;SDS011;13517;59.320;18.042;2023-02-15T08:02:52;23.15;;;10.40;;
25657;SDS011;13517;59.320;18.042;2023-02-15T08:05:38;19.20;;;10.15;;
25657;SDS011;13517;59.320;18.042;2023-02-15T08:08:05;21.27;;;10.48;;
25657;SDS011;13517;59.320;18.042;2023-02-15T08:10:31;22.52;;;11.88;;
25657;SDS011;13517;59.320;18.042;2023-02-15T08:13:15;21.20;;;9.98;;
25657;SDS011;13517;59.320;18.042;2023-02-15T08:15:47;23.05;;;10.05;;
25657;SDS011;13517;59.320;18.042;2023-02-15T08:18:14;19.53;;;8.67;;
25657;SDS011;13517;59.320;18.042;2023-02-15T08:20:40;19.15;;;10.30;;
25657;SDS011;13517;59.320;18.042;2023-02-15T08:23:05;18.00;;;9.75;;
25657;SDS011;13517;59.320;18.042;2023-02-15T08:25:30;19.80;;;10.43;;
25657;SDS011;13517;59.320;18.042;2023-02-15T08:27:56;17.80;;;9.27;;
25657;SDS011;13517;59.320;18.042;2023-02-15T08:30:21;17.50;;;8.98;;
25657;SDS011;13517;59.320;18.042;2023-02-15T08:32:47;23.52;;;10.43;;
25657;SDS011;13517;59.320;18.042;2023-02-15T08:35:13;21.08;;;9.38;;
25657;SDS011;13517;59.320;18.042;2023-02-15T08:37:38;19.65;;;9.77;;
25657;SDS011;13517;59.320;18.042;2023-02-15T08:40:04;18.05;;;9.68;;
25657;SDS011;13517;59.320;18.042;2023-02-15T08:42:32;20.52;;;9.52;;
25657;SDS011;13517;59.320;18.042;2023-02-15T08:44:58;24.15;;;10.32;;
25657;SDS011;13517;59.320;18.042;2023-02-15T08:47:23;25.52;;;9.80;;
25657;SDS011;13517;59.320;18.042;2023-02-15T08:49:48;21.90;;;10.00;;
25657;SDS011;13517;59.320;18.042;2023-02-15T08:52:14;23.55;;;11.27;;
25657;SDS011;13517;59.320;18.042;2023-02-15T08:54:39;19.33;;;10.40;;
25657;SDS011;13517;59.320;18.042;2023-02-15T08:57:05;22.70;;;9.82;;
25657;SDS011;13517;59.320;18.042;2023-02-15T08:59:31;15.80;;;8.63;;
25657;SDS011;13517;59.320;18.042;2023-02-15T09:01:57;18.27;;;9.35;;
25657;SDS011;13517;59.320;18.042;2023-02-15T09:04:22;19.83;;;9.80;;
25657;SDS011;13517;59.320;18.042;2023-02-15T09:06:48;20.90;;;9.52;;
25657;SDS011;13517;59.320;18.042;2023-02-15T09:09:15;18.35;;;9.23;;
25657;SDS011;13517;59.320;18.042;2023-02-15T09:11:42;16.73;;;9.32;;
25657;SDS011;13517;59.320;18.042;2023-02-15T09:14:10;22.30;;;10.30;;
25657;SDS011;13517;59.320;18.042;2023-02-15T09:16:41;18.85;;;8.63;;
25657;SDS011;13517;59.320;18.042;2023-02-15T09:19:14;14.98;;;7.90;;
25657;SDS011;13517;59.320;18.042;2023-02-15T09:21:40;18.10;;;8.60;;
25657;SDS011;13517;59.320;18.042;2023-02-15T09:24:06;18.67;;;8.77;;
25657;SDS011;13517;59.320;18.042;2023-02-15T09:26:34;15.50;;;7.65;;
25657;SDS011;13517;59.320;18.042;2023-02-15T09:29:02;14.57;;;7.43;;
25657;SDS011;13517;59.320;18.042;2023-02-15T09:31:29;16.08;;;8.18;;
25657;SDS011;13517;59.320;18.042;2023-02-15T09:34:01;16.80;;;7.90;;
25657;SDS011;13517;59.320;18.042;2023-02-15T09:36:31;15.23;;;7.78;;
25657;SDS011;13517;59.320;18.042;2023-02-15T09:39:01;15.43;;;7.88;;
25657;SDS011;13517;59.320;18.042;2023-02-15T09:53:02;15.70;;;8.65;;
25657;SDS011;13517;59.320;18.042;2023-02-15T09:59:49;16.30;;;6.88;;
25657;SDS011;13517;59.320;18.042;2023-02-15T10:04:40;18.63;;;7.13;;
25657;SDS011;13517;59.320;18.042;2023-02-15T10:23:30;13.52;;;7.10;;
25657;SDS011;13517;59.320;18.042;2023-02-15T10:26:19;16.95;;;8.00;;
25657;SDS011;13517;59.320;18.042;2023-02-15T10:29:00;16.08;;;8.05;;
25657;SDS011;13517;59.320;18.042;2023-02-15T10:31:48;17.73;;;8.27;;
25657;SDS011;13517;59.320;18.042;2023-02-15T10:54:03;19.77;;;10.25;;
25657;SDS011;13517;59.320;18.042;2023-02-15T10:59:33;17.08;;;7.93;;
25657;SDS011;13517;59.320;18.042;2023-02-15T11:02:13;23.85;;;9.27;;
25657;SDS011;13517;59.320;18.042;2023-02-15T11:04:46;24.73;;;9.88;;
25657;SDS011;13517;59.320;18.042;2023-02-15T11:07:20;18.70;;;9.60;;
25657;SDS011;13517;59.320;18.042;2023-02-15T11:09:53;24.80;;;9.75;;
25657;SDS011;13517;59.320;18.042;2023-02-15T11:12:22;25.50;;;9.88;;
25657;SDS011;13517;59.320;18.042;2023-02-15T11:17:22;27.02;;;9.15;;
25657;SDS011;13517;59.320;18.042;2023-02-15T11:20:15;21.55;;;9.93;;
25657;SDS011;13517;59.320;18.042;2023-02-15T11:22:41;19.52;;;9.52;;
25657;SDS011;13517;59.320;18.042;2023-02-15T11:25:15;21.20;;;9.32;;
25657;SDS011;13517;59.320;18.042;2023-02-15T11:27:44;20.33;;;9.98;;
25657;SDS011;13517;59.320;18.042;2023-02-15T11:30:13;21.08;;;9.48;;
25657;SDS011;13517;59.320;18.042;2023-02-15T11:32:40;28.08;;;10.63;;
25657;SDS011;13517;59.320;18.042;2023-02-15T11:37:51;21.92;;;10.25;;
25657;SDS011;13517;59.320;18.042;2023-02-15T11:40:28;20.83;;;9.98;;
25657;SDS011;13517;59.320;18.042;2023-02-15T11:43:00;24.88;;;10.27;;
25657;SDS011;13517;59.320;18.042;2023-02-15T11:45:31;24.30;;;9.70;;
25657;SDS011;13517;59.320;18.042;2023-02-15T11:47:59;19.65;;;10.50;;
25657;SDS011;13517;59.320;18.042;2023-02-15T11:50:29;22.23;;;10.25;;
25657;SDS011;13517;59.320;18.042;2023-02-15T11:53:19;26.92;;;10.63;;
25657;SDS011;13517;59.320;18.042;2023-02-15T11:55:49;24.77;;;10.80;;
25657;SDS011;13517;59.320;18.042;2023-02-15T11:58:33;23.35;;;8.85;;
25657;SDS011;13517;59.320;18.042;2023-02-15T12:06:18;20.42;;;10.05;;
25657;SDS011;13517;59.320;18.042;2023-02-15T12:08:51;21.30;;;10.40;;
25657;SDS011;13517;59.320;18.042;2023-02-15T12:11:23;22.27;;;9.65;;
25657;SDS011;13517;59.320;18.042;2023-02-15T12:14:06;25.95;;;9.45;;
25657;SDS011;13517;59.320;18.042;2023-02-15T12:16:48;26.45;;;10.95;;
25657;SDS011;13517;59.320;18.042;2023-02-15T12:24:55;23.25;;;10.52;;
25657;SDS011;13517;59.320;18.042;2023-02-15T12:27:24;32.65;;;11.90;;
25657;SDS011;13517;59.320;18.042;2023-02-15T12:30:01;26.27;;;10.82;;
25657;SDS011;13517;59.320;18.042;2023-02-15T12:32:36;24.83;;;10.48;;
25657;SDS011;13517;59.320;18.042;2023-02-15T12:35:25;20.55;;;9.57;;
25657;SDS011;13517;59.320;18.042;2023-02-15T12:37:54;21.08;;;10.02;;
25657;SDS011;13517;59.320;18.042;2023-02-15T12:40:43;25.17;;;10.85;;
25657;SDS011;13517;59.320;18.042;2023-02-15T12:43:26;20.67;;;10.48;;
25657;SDS011;13517;59.320;18.042;2023-02-15T12:51:43;25.27;;;11.43;;
25657;SDS011;13517;59.320;18.042;2023-02-15T12:54:28;26.05;;;11.52;;
25657;SDS011;13517;59.320;18.042;2023-02-15T13:02:24;23.13;;;10.50;;
25657;SDS011;13517;59.320;18.042;2023-02-15T13:04:56;27.75;;;10.80;;
25657;SDS011;13517;59.320;18.042;2023-02-15T13:07:29;26.15;;;10.32;;
25657;SDS011;13517;59.320;18.042;2023-02-15T13:09:56;23.23;;;10.80;;
25657;SDS011;13517;59.320;18.042;2023-02-15T13:12:28;31.98;;;11.57;;
25657;SDS011;13517;59.320;18.042;2023-02-15T13:14:57;25.88;;;10.80;;
25657;SDS011;13517;59.320;18.042;2023-02-15T13:17:25;23.55;;;10.23;;
25657;SDS011;13517;59.320;18.042;2023-02-15T13:19:59;23.27;;;10.18;;
25657;SDS011;13517;59.320;18.042;2023-02-15T13:22:32;31.73;;;10.63;;
25657;SDS011;13517;59.320;18.042;2023-02-15T13:25:25;23.05;;;10.82;;
25657;SDS011;13517;59.320;18.042;2023-02-15T13:27:56;22.60;;;10.57;;
25657;SDS011;13517;59.320;18.042;2023-02-15T13:30:27;26.27;;;11.45;;
25657;SDS011;13517;59.320;18.042;2023-02-15T13:33:17;26.55;;;11.07;;
25657;SDS011;13517;59.320;18.042;2023-02-15T13:36:05;24.95;;;10.80;;
25657;SDS011;13517;59.320;18.042;2023-02-15T13:52:05;21.77;;;10.02;;
25657;SDS011;13517;59.320;18.042;2023-02-15T13:54:51;25.27;;;10.55;;
25657;SDS011;13517;59.320;18.042;2023-02-15T14:06:05;22.52;;;11.45;;
25657;SDS011;13517;59.320;18.042;2023-02-15T14:11:11;26.02;;;11.35;;
25657;SDS011;13517;59.320;18.042;2023-02-15T14:16:50;25.70;;;11.15;;
25657;SDS011;13517;59.320;18.042;2023-02-15T14:27:56;25.35;;;10.85;;
25657;SDS011;13517;59.320;18.042;2023-02-15T14:30:44;28.65;;;9.93;;
25657;SDS011;13517;59.320;18.042;2023-02-15T14:35:59;23.55;;;10.52;;
25657;SDS011;13517;59.320;18.042;2023-02-15T14:38:33;19.52;;;9.63;;
25657;SDS011;13517;59.320;18.042;2023-02-15T14:48:58;25.88;;;9.65;;
25657;SDS011;13517;59.320;18.042;2023-02-15T15:00:36;23.42;;;8.55;;
25657;SDS011;13517;59.320;18.042;2023-02-15T15:02:25;24.70;;;9.70;;
25657;SDS011;13517;59.320;18.042;2023-02-15T15:09:56;20.45;;;8.57;;
25657;SDS011;13517;59.320;18.042;2023-02-15T15:14:57;18.55;;;7.72;;
25657;SDS011;13517;59.320;18.042;2023-02-15T15:22:29;20.27;;;8.05;;
25657;SDS011;13517;59.320;18.042;2023-02-15T15:41:39;20.10;;;7.70;;
25657;SDS011;13517;59.320;18.042;2023-02-15T15:49:57;21.05;;;8.88;;
25657;SDS011;13517;59.320;18.042;2023-02-15T15:52:24;20.48;;;8.95;;
25657;SDS011;13517;59.320;18.042;2023-02-15T15:54:55;16.35;;;8.10;;
25657;SDS011;13517;59.320;18.042;2023-02-15T15:57:28;16.88;;;7.53;;
25657;SDS011;13517;59.320;18.042;2023-02-15T15:59:55;20.52;;;8.32;;
25657;SDS011;13517;59.320;18.042;2023-02-15T16:02:23;17.50;;;7.47;;
25657;SDS011;13517;59.320;18.042;2023-02-15T16:04:49;15.63;;;7.43;;
25657;SDS011;13517;59.320;18.042;2023-02-15T16:12:35;19.45;;;7.88;;
25657;SDS011;13517;59.320;18.042;2023-02-15T16:15:25;19.88;;;9.20;;
25657;SDS011;13517;59.320;18.042;2023-02-15T16:17:52;20.33;;;8.38;;
25657;SDS011;13517;59.320;18.042;2023-02-15T16:20:28;19.48;;;8.07;;
25657;SDS011;13517;59.320;18.042;2023-02-15T16:23:45;20.10;;;8.50;;
25657;SDS011;13517;59.320;18.042;2023-02-15T16:28:59;20.15;;;9.10;;
25657;SDS011;13517;59.320;18.042;2023-02-15T16:31:26;25.35;;;9.77;;
25657;SDS011;13517;59.320;18.042;2023-02-15T16:33:52;23.48;;;9.40;;
25657;SDS011;13517;59.320;18.042;2023-02-15T16:36:23;23.40;;;8.90;;
25657;SDS011;13517;59.320;18.042;2023-02-15T16:41:17;22.92;;;8.82;;
25657;SDS011;13517;59.320;18.042;2023-02-15T16:43:50;22.25;;;9.80;;
25657;SDS011;13517;59.320;18.042;2023-02-15T16:46:28;19.02;;;8.93;;
25657;SDS011;13517;59.320;18.042;2023-02-15T16:49:00;21.92;;;8.82;;
25657;SDS011;13517;59.320;18.042;2023-02-15T16:51:30;17.13;;;8.55;;
25657;SDS011;13517;59.320;18.042;2023-02-15T16:54:00;21.35;;;8.75;;
25657;SDS011;13517;59.320;18.042;2023-02-15T16:56:31;18.83;;;8.70;;
25657;SDS011;13517;59.320;18.042;2023-02-15T16:58:58;19.27;;;9.00;;
25657;SDS011;13517;59.320;18.042;2023-02-15T17:01:29;26.25;;;9.52;;
25657;SDS011;13517;59.320;18.042;2023-02-15T17:04:10;24.08;;;9.48;;
25657;SDS011;13517;59.320;18.042;2023-02-15T17:06:57;19.70;;;9.27;;
25657;SDS011;13517;59.320;18.042;2023-02-15T17:09:24;20.17;;;9.10;;
25657;SDS011;13517;59.320;18.042;2023-02-15T17:11:50;19.98;;;8.23;;
25657;SDS011;13517;59.320;18.042;2023-02-15T17:14:19;18.88;;;8.63;;
25657;SDS011;13517;59.320;18.042;2023-02-15T17:16:52;21.33;;;9.57;;
25657;SDS011;13517;59.320;18.042;2023-02-15T17:19:23;18.25;;;8.65;;
25657;SDS011;13517;59.320;18.042;2023-02-15T17:24:34;21.10;;;9.48;;
25657;SDS011;13517;59.320;18.042;2023-02-15T17:27:02;18.40;;;8.45;;
25657;SDS011;13517;59.320;18.042;2023-02-15T17:29:39;18.85;;;8.63;;
25657;SDS011;13517;59.320;18.042;2023-02-15T17:32:12;17.13;;;8.50;;
25657;SDS011;13517;59.320;18.042;2023-02-15T17:37:24;18.75;;;8.60;;
25657;SDS011;13517;59.320;18.042;2023-02-15T17:39:54;21.05;;;9.50;;
25657;SDS011;13517;59.320;18.042;2023-02-15T17:42:20;22.98;;;9.52;;
25657;SDS011;13517;59.320;18.042;2023-02-15T17:44:45;23.05;;;9.63;;
25657;SDS011;13517;59.320;18.042;2023-02-15T17:47:18;18.45;;;8.55;;
25657;SDS011;13517;59.320;18.042;2023-02-15T17:49:45;18.45;;;8.90;;
25657;SDS011;13517;59.320;18.042;2023-02-15T17:52:14;21.15;;;8.07;;
25657;SDS011;13517;59.320;18.042;2023-02-15T17:54:40;22.75;;;8.63;;
25657;SDS011;13517;59.320;18.042;2023-02-15T17:57:25;22.80;;;8.55;;
25657;SDS011;13517;59.320;18.042;2023-02-15T17:59:51;23.80;;;8.80;;
25657;SDS011;13517;59.320;18.042;2023-02-15T18:02:35;22.17;;;8.95;;
25657;SDS011;13517;59.320;18.042;2023-02-15T18:05:19;17.50;;;8.68;;
25657;SDS011;13517;59.320;18.042;2023-02-15T18:10:49;18.55;;;7.30;;
25657;SDS011;13517;59.320;18.042;2023-02-15T18:13:32;18.45;;;9.18;;
25657;SDS011;13517;59.320;18.042;2023-02-15T18:15:58;23.20;;;8.52;;
25657;SDS011;13517;59.320;18.042;2023-02-15T18:18:24;26.00;;;9.63;;